createdAt,value
2019-03-05T00:01:33.120Z,39.50
2019-03-05T00:04:11.879Z,38.90
2019-03-05T00:06:46.864Z,41.90
2019-03-05T00:09:25.081Z,39.20
2019-03-05T00:11:59.571Z,41.20
2019-03-05T00:14:37.381Z,41.30
2019-03-05T00:17:13.619Z,41.90
2019-03-05T00:20:00.348Z,42.70
2019-03-05T00:23:00.286Z,41.70
2019-03-05T00:25:36.382Z,41.40
2019-03-05T00:28:26.931Z,41.10
2019-03-05T00:34:28.310Z,41.30
2019-03-05T00:37:11.026Z,41.60
2019-03-05T00:40:07.342Z,40.90
2019-03-05T00:43:13.962Z,41.60
2019-03-05T00:46:12.539Z,41.20
2019-03-05T00:49:13.580Z,41.50
2019-03-05T00:52:12.344Z,42.10
2019-03-05T00:55:11.686Z,43.10
2019-03-05T00:58:02.971Z,43.30
2019-03-05T01:01:06.119Z,42.90
2019-03-05T01:04:20.774Z,43.20
2019-03-05T01:06:56.892Z,44.10
2019-03-05T01:09:32.782Z,45.40
2019-03-05T01:12:10.918Z,44.50
2019-03-05T01:14:47.512Z,43.90
2019-03-05T01:17:26.870Z,44.40
2019-03-05T01:20:02.933Z,44.60
2019-03-05T01:22:37.450Z,45.50
2019-03-05T01:25:29.212Z,46.20
2019-03-05T01:28:04.949Z,45.60
2019-03-05T01:31:12.734Z,45.10
2019-03-05T01:34:15.386Z,43.70
2019-03-05T01:36:57.258Z,44.50
2019-03-05T01:39:52.182Z,45.20
2019-03-05T01:42:31.474Z,45.10
2019-03-05T01:45:18.265Z,45.30
2019-03-05T01:47:54.330Z,45.60
2019-03-05T01:50:31.894Z,45.50
2019-03-05T01:53:09.115Z,45.20
2019-03-05T01:55:43.814Z,46.40
2019-03-05T01:58:26.852Z,47.80
2019-03-05T02:01:04.509Z,48.20
2019-03-05T02:03:43.422Z,49.50
2019-03-05T02:06:21.315Z,51.20
2019-03-05T02:09:05.928Z,51.70
2019-03-05T02:11:41.547Z,51.10
2019-03-05T02:14:19.227Z,50.10
2019-03-05T02:16:58.840Z,50.90
2019-03-05T02:19:48.894Z,49.60
2019-03-05T02:22:44.033Z,49.30
2019-03-05T02:26:00.538Z,49.70
2019-03-05T02:29:02.501Z,49.80
2019-03-05T02:32:26.034Z,51.50
2019-03-05T02:35:17.928Z,52.70
2019-03-05T02:38:50.978Z,52.90
2019-03-05T02:42:02.432Z,55.30
2019-03-05T02:45:08.431Z,57.50
2019-03-05T02:48:30.152Z,58.60
2019-03-05T02:51:41.156Z,58.30
2019-03-05T02:54:57.451Z,57.10
2019-03-05T02:57:31.415Z,58.70
2019-03-05T03:00:14.240Z,58.60
2019-03-05T03:02:58.239Z,58.50
2019-03-05T03:05:55.861Z,60.40
2019-03-05T03:08:32.217Z,60.40
2019-03-05T03:11:12.422Z,58.70
2019-03-05T03:13:50.289Z,60.40
2019-03-05T03:16:27.587Z,59.80
2019-03-05T03:19:04.749Z,61.30
2019-03-05T03:21:47.264Z,58.70
2019-03-05T03:24:23.978Z,59.20
2019-03-05T03:27:05.138Z,58.40
2019-03-05T03:29:42.097Z,56.10
2019-03-05T03:32:18.000Z,55.20
2019-03-05T03:34:56.082Z,56.60
2019-03-05T03:37:37.117Z,57.50
2019-03-05T03:40:21.966Z,58.20
2019-03-05T03:42:59.137Z,56.10
2019-03-05T03:45:34.510Z,56.40
2019-03-05T03:48:10.728Z,55.60
2019-03-05T03:50:46.615Z,56.90
2019-03-05T03:53:26.594Z,55.30
2019-03-05T03:56:06.536Z,56.20
2019-03-05T03:58:49.462Z,55.00
2019-03-05T04:01:35.531Z,53.50
2019-03-05T04:04:10.094Z,54.20
2019-03-05T04:06:45.162Z,54.30
2019-03-05T04:09:28.399Z,54.40
2019-03-05T04:12:04.610Z,55.70
2019-03-05T04:14:48.631Z,54.90
2019-03-05T04:17:26.477Z,54.60
2019-03-05T04:20:02.290Z,55.20
2019-03-05T04:22:39.382Z,55.90
2019-03-05T04:25:15.005Z,56.70
2019-03-05T04:27:49.831Z,56.20
2019-03-05T04:30:24.662Z,56.50
2019-03-05T04:32:59.673Z,57.80
2019-03-05T04:35:34.744Z,58.10
2019-03-05T04:38:16.663Z,57.60
2019-03-05T04:40:53.228Z,58.80
2019-03-05T04:43:29.663Z,58.90
2019-03-05T04:46:22.497Z,57.10
2019-03-05T04:49:33.186Z,57.50
2019-03-05T04:52:25.459Z,59.30
2019-03-05T04:55:04.093Z,58.30
2019-03-05T04:57:39.451Z,59.30
2019-03-05T05:00:18.548Z,58.30
2019-03-05T05:02:54.713Z,60.20
2019-03-05T05:05:42.556Z,61.60
2019-03-05T05:08:17.390Z,64.40
2019-03-05T05:10:53.252Z,67.00
2019-03-05T05:13:30.221Z,67.70
2019-03-05T05:16:08.124Z,67.60
2019-03-05T05:18:48.544Z,68.00
2019-03-05T05:21:25.869Z,69.70
2019-03-05T05:24:06.352Z,74.40
2019-03-05T05:26:40.666Z,80.20
2019-03-05T05:29:20.602Z,80.10
2019-03-05T05:31:58.325Z,80.90
2019-03-05T05:34:33.530Z,83.90
2019-03-05T05:37:12.885Z,85.10
2019-03-05T05:40:21.022Z,84.60
2019-03-05T05:43:05.954Z,85.00
2019-03-05T05:45:59.302Z,84.40
2019-03-05T05:48:35.994Z,90.30
2019-03-05T05:51:10.962Z,87.50
2019-03-05T05:53:46.791Z,89.90
2019-03-05T05:56:22.387Z,92.60
2019-03-05T05:59:01.529Z,90.90
2019-03-05T06:01:37.439Z,92.40
2019-03-05T06:04:15.535Z,91.50
2019-03-05T06:06:55.614Z,91.10
2019-03-05T06:09:37.810Z,90.80
2019-03-05T06:12:13.456Z,90.90
2019-03-05T06:14:55.496Z,89.60
2019-03-05T06:17:41.030Z,88.70
2019-03-05T06:20:19.440Z,88.30
2019-03-05T06:23:00.476Z,87.70
2019-03-05T06:25:37.672Z,89.40
2019-03-05T06:28:20.265Z,91.10
2019-03-05T06:30:56.180Z,89.70
2019-03-05T06:33:32.107Z,93.50
2019-03-05T06:36:08.086Z,92.00
2019-03-05T06:38:43.054Z,92.00
2019-03-05T06:41:19.320Z,92.60
2019-03-05T06:43:57.744Z,91.90
2019-03-05T06:46:36.067Z,91.20
2019-03-05T06:49:16.805Z,93.50
2019-03-05T06:51:52.469Z,93.00
2019-03-05T06:54:28.769Z,93.10
2019-03-05T06:57:11.781Z,93.50
2019-03-05T07:00:00.052Z,92.90
2019-03-05T07:02:35.733Z,93.10
2019-03-05T07:05:32.065Z,96.10
2019-03-05T07:08:10.104Z,97.50
2019-03-05T07:11:17.195Z,98.80
2019-03-05T07:13:54.668Z,96.20
2019-03-05T07:16:59.505Z,95.70
2019-03-05T07:20:18.766Z,96.90
2019-03-05T07:23:16.921Z,96.20
2019-03-05T07:25:51.952Z,96.40
2019-03-05T07:28:33.873Z,97.50
2019-03-05T07:31:11.601Z,99.90
2019-03-05T07:33:53.915Z,97.80
2019-03-05T07:36:50.094Z,97.40
2019-03-05T07:39:34.337Z,96.50
2019-03-05T07:42:26.655Z,99.90
2019-03-05T07:45:02.242Z,98.20
2019-03-05T07:47:39.882Z,99.90
2019-03-05T07:50:17.662Z,99.90
2019-03-05T07:52:56.601Z,99.80
2019-03-05T07:55:40.364Z,97.30
2019-03-05T07:58:15.638Z,97.80
2019-03-05T08:00:52.178Z,99.10
2019-03-05T08:03:29.574Z,97.30
2019-03-05T08:06:07.956Z,98.80
2019-03-05T08:09:15.943Z,98.70
2019-03-05T08:12:01.491Z,98.30
2019-03-05T08:15:22.769Z,99.80
2019-03-05T08:18:02.537Z,99.00
2019-03-05T08:20:40.810Z,99.90
2019-03-05T08:23:23.713Z,99.60
2019-03-05T08:26:00.560Z,99.90
2019-03-05T08:28:38.007Z,99.90
2019-03-05T08:31:18.736Z,99.90
2019-03-05T08:33:55.829Z,99.90
2019-03-05T08:36:32.934Z,99.30
2019-03-05T08:39:10.223Z,99.90
2019-03-05T08:41:47.644Z,99.90
2019-03-05T08:44:27.697Z,99.90
2019-03-05T08:47:10.717Z,99.90
2019-03-05T08:49:46.549Z,99.90
2019-03-05T08:52:21.043Z,99.90
2019-03-05T08:54:56.811Z,99.90
2019-03-05T08:57:32.934Z,99.90
2019-03-05T09:00:11.363Z,99.90
2019-03-05T09:02:49.475Z,99.90
2019-03-05T09:05:29.331Z,99.90
2019-03-05T09:08:04.248Z,99.90
2019-03-05T09:10:41.227Z,99.90
2019-03-05T09:13:17.798Z,99.90
2019-03-05T09:15:52.801Z,99.90
2019-03-05T09:18:30.075Z,99.90
2019-03-05T09:21:04.373Z,99.90
2019-03-05T09:23:48.845Z,99.90
2019-03-05T09:26:27.982Z,99.90
2019-03-05T09:29:07.966Z,99.90
2019-03-05T09:31:43.806Z,99.90
2019-03-05T09:34:19.447Z,99.90
2019-03-05T09:37:01.006Z,99.90
2019-03-05T09:39:47.442Z,99.90
2019-03-05T09:42:22.615Z,99.90
2019-03-05T09:44:59.538Z,99.90
2019-03-05T09:47:42.879Z,99.90
2019-03-05T09:50:19.087Z,99.90
2019-03-05T09:52:57.232Z,99.90
2019-03-05T09:55:37.516Z,99.90
2019-03-05T09:58:12.206Z,99.90
2019-03-05T10:00:49.279Z,99.90
2019-03-05T10:03:25.674Z,99.90
2019-03-05T10:06:04.844Z,99.90
2019-03-05T10:08:43.435Z,99.90
2019-03-05T10:11:26.255Z,99.90
2019-03-05T10:14:01.573Z,99.90
2019-03-05T10:16:38.761Z,99.90
2019-03-05T10:19:17.694Z,99.90
2019-03-05T10:22:00.486Z,99.90
2019-03-05T10:24:38.669Z,99.90
2019-03-05T10:27:21.344Z,99.90
2019-03-05T10:29:55.604Z,99.90
2019-03-05T10:32:34.080Z,99.90
2019-03-05T10:35:10.775Z,99.90
2019-03-05T10:37:48.930Z,99.90
2019-03-05T10:40:28.004Z,99.90
2019-03-05T10:43:08.942Z,99.90
2019-03-05T10:45:47.954Z,99.90
2019-03-05T10:48:25.717Z,99.90
2019-03-05T10:51:09.439Z,99.90
2019-03-05T10:53:50.685Z,99.90
2019-03-05T10:56:28.749Z,99.90
2019-03-05T10:59:05.386Z,99.90
2019-03-05T11:01:48.989Z,99.90
2019-03-05T11:04:24.722Z,99.90
2019-03-05T11:06:59.142Z,99.90
2019-03-05T11:09:43.695Z,99.90
2019-03-05T11:12:18.747Z,99.90
2019-03-05T11:14:58.842Z,99.90
2019-03-05T11:17:35.923Z,99.90
2019-03-05T11:20:15.857Z,99.90
2019-03-05T11:22:55.633Z,99.90
2019-03-05T11:25:31.547Z,99.90
2019-03-05T11:28:12.061Z,99.90
2019-03-05T11:30:59.174Z,99.90
2019-03-05T11:33:49.963Z,99.90
2019-03-05T11:36:25.459Z,99.90
2019-03-05T11:38:59.931Z,99.90
2019-03-05T11:41:39.342Z,99.90
2019-03-05T11:44:19.216Z,99.90
2019-03-05T11:46:56.091Z,99.90
2019-03-05T11:49:36.485Z,99.90
2019-03-05T11:52:21.999Z,99.90
2019-03-05T11:54:59.875Z,99.90
2019-03-05T11:57:39.413Z,99.90
2019-03-05T12:00:42.880Z,99.90
2019-03-05T12:03:20.192Z,99.90
2019-03-05T12:06:01.647Z,99.90
2019-03-05T12:08:44.976Z,99.90
2019-03-05T12:11:25.997Z,99.90
2019-03-05T12:14:10.130Z,99.90
2019-03-05T12:16:48.272Z,99.90
2019-03-05T12:19:24.623Z,99.90
2019-03-05T12:22:05.106Z,99.90
2019-03-05T12:24:45.047Z,99.90
2019-03-05T12:27:27.303Z,99.90
2019-03-05T12:30:05.538Z,99.90
2019-03-05T12:32:41.683Z,99.90
2019-03-05T12:35:19.401Z,99.90
2019-03-05T12:38:07.311Z,99.90
2019-03-05T12:40:44.805Z,99.90
2019-03-05T12:43:19.459Z,99.90
2019-03-05T12:45:56.637Z,99.90
2019-03-05T12:48:40.354Z,99.90
2019-03-05T12:51:21.135Z,99.90
2019-03-05T12:54:00.913Z,99.90
2019-03-05T12:56:39.121Z,99.90
2019-03-05T12:59:14.204Z,99.90
2019-03-05T13:01:48.558Z,99.90
2019-03-05T13:04:29.326Z,99.90
2019-03-05T13:07:09.307Z,99.90
2019-03-05T13:09:45.363Z,99.90
2019-03-05T13:12:20.683Z,99.90
2019-03-05T13:14:55.178Z,99.90
2019-03-05T13:17:37.579Z,99.90
2019-03-05T13:20:16.255Z,99.90
2019-03-05T13:23:05.084Z,99.90
2019-03-05T13:25:39.438Z,99.90
2019-03-05T13:28:14.260Z,99.90
2019-03-05T13:30:54.158Z,99.90
2019-03-05T13:33:33.493Z,99.90
2019-03-05T13:36:16.268Z,99.90
2019-03-05T13:39:04.845Z,99.90
2019-03-05T13:41:39.822Z,99.90
2019-03-05T13:44:35.726Z,99.90
2019-03-05T13:47:15.479Z,99.90
2019-03-05T13:50:15.301Z,99.90
2019-03-05T13:53:14.833Z,99.90
2019-03-05T13:56:17.625Z,99.90
2019-03-05T13:59:18.228Z,99.90
2019-03-05T14:01:52.734Z,99.90
2019-03-05T14:04:37.668Z,99.90
2019-03-05T14:07:47.429Z,99.90
2019-03-05T14:10:22.369Z,99.90
2019-03-05T14:12:58.661Z,99.90
2019-03-05T14:15:34.495Z,99.90
2019-03-05T14:18:10.892Z,99.90
2019-03-05T14:20:53.266Z,99.90
2019-03-05T14:23:32.124Z,99.90
2019-03-05T14:26:07.045Z,99.90
2019-03-05T14:28:45.338Z,99.90
2019-03-05T14:31:24.698Z,99.90
2019-03-05T14:33:59.625Z,99.90
2019-03-05T14:36:35.735Z,99.90
2019-03-05T14:39:25.397Z,99.90
2019-03-05T14:42:02.083Z,99.90
2019-03-05T14:44:43.479Z,99.90
2019-03-05T14:47:18.330Z,99.90
2019-03-05T14:49:53.593Z,99.90
2019-03-05T14:52:29.098Z,99.90
2019-03-05T14:55:05.055Z,99.90
2019-03-05T14:57:41.721Z,99.90
2019-03-05T15:00:21.574Z,99.90
2019-03-05T15:03:01.812Z,99.90
2019-03-05T15:05:40.719Z,99.90
2019-03-05T15:08:15.975Z,99.90
2019-03-05T15:10:51.486Z,99.90
2019-03-05T15:13:28.608Z,99.90
2019-03-05T15:16:12.670Z,99.90
2019-03-05T15:18:48.438Z,99.90
2019-03-05T15:21:23.509Z,99.90
2019-03-05T15:24:03.504Z,99.90
2019-03-05T15:26:42.871Z,99.90
2019-03-05T15:29:19.386Z,99.90
2019-03-05T15:31:57.945Z,99.90
2019-03-05T15:34:41.679Z,99.90
2019-03-05T15:37:22.816Z,99.90
2019-03-05T15:40:04.314Z,99.90
2019-03-05T15:42:43.164Z,99.90
2019-03-05T15:45:19.093Z,99.90
2019-03-05T15:47:56.565Z,99.90
2019-03-05T15:50:51.542Z,99.90
2019-03-05T15:53:37.599Z,99.90
2019-03-05T15:56:57.280Z,99.90
2019-03-05T15:59:46.163Z,99.90
2019-03-05T16:02:28.519Z,99.90
2019-03-05T16:08:32.643Z,99.90
2019-03-05T16:11:17.264Z,99.90
2019-03-05T16:13:56.431Z,99.90
2019-03-05T16:16:35.979Z,99.90
2019-03-05T16:19:18.036Z,99.90
2019-03-05T16:22:34.307Z,99.90
2019-03-05T16:25:15.321Z,99.90
2019-03-05T16:28:39.178Z,99.90
2019-03-05T16:31:37.538Z,99.90
2019-03-05T16:34:57.288Z,99.90
2019-03-05T16:38:29.491Z,99.90
2019-03-05T16:41:30.266Z,99.90
2019-03-05T16:44:29.988Z,99.90
2019-03-05T16:47:43.598Z,99.90
2019-03-05T16:50:55.288Z,99.90
2019-03-05T16:53:48.730Z,99.90
2019-03-05T16:57:02.280Z,99.90
2019-03-05T17:00:02.929Z,99.90
2019-03-05T17:02:47.918Z,99.90
2019-03-05T17:06:00.869Z,99.90
2019-03-05T17:08:53.860Z,99.90
2019-03-05T17:11:54.203Z,99.90
2019-03-05T17:14:30.412Z,99.90
2019-03-05T17:17:04.991Z,99.90
2019-03-05T17:19:40.779Z,99.90
2019-03-05T17:22:24.683Z,99.90
2019-03-05T17:25:06.167Z,99.90
2019-03-05T17:27:43.419Z,98.20
2019-03-05T17:30:20.800Z,98.60
2019-03-05T17:32:57.956Z,99.90
2019-03-05T17:35:40.848Z,99.90
2019-03-05T17:38:45.090Z,99.90
2019-03-05T17:44:44.796Z,99.90
2019-03-05T17:48:08.709Z,99.90
2019-03-05T17:50:42.929Z,99.90
2019-03-05T17:54:19.270Z,99.90
2019-03-05T17:57:28.609Z,99.90
2019-03-05T18:00:46.460Z,99.90
2019-03-05T18:03:37.043Z,99.90
2019-03-05T18:06:22.317Z,99.90
2019-03-05T18:09:11.994Z,99.90
2019-03-05T18:11:47.372Z,99.40
2019-03-05T18:14:22.843Z,98.50
2019-03-05T18:16:58.790Z,99.90
2019-03-05T18:19:34.308Z,99.90
2019-03-05T18:22:22.617Z,99.90
2019-03-05T18:24:57.115Z,96.80
2019-03-05T18:27:32.443Z,94.50
2019-03-05T18:30:07.754Z,94.50
2019-03-05T18:32:49.615Z,90.90
2019-03-05T18:35:30.639Z,87.70
2019-03-05T18:38:07.894Z,85.90
2019-03-05T18:41:24.128Z,84.90
2019-03-05T18:44:17.572Z,85.20
2019-03-05T18:47:14.484Z,81.60
2019-03-05T18:49:49.221Z,80.30
2019-03-05T18:52:26.706Z,79.70
2019-03-05T18:55:03.863Z,77.50
2019-03-05T18:57:40.748Z,75.50
2019-03-05T19:00:22.523Z,73.90
2019-03-05T19:03:00.670Z,72.30
2019-03-05T19:05:36.083Z,74.20
2019-03-05T19:08:12.511Z,74.60
2019-03-05T19:10:48.242Z,72.50
2019-03-05T19:13:26.274Z,69.20
2019-03-05T19:16:02.869Z,71.50
2019-03-05T19:18:39.520Z,72.10
2019-03-05T19:21:15.315Z,70.60
2019-03-05T19:23:54.949Z,69.90
2019-03-05T19:26:30.795Z,68.60
2019-03-05T19:29:06.561Z,68.40
2019-03-05T19:31:42.498Z,70.30
2019-03-05T19:34:41.814Z,70.60
2019-03-05T19:37:17.053Z,70.10
2019-03-05T19:39:54.000Z,69.00
2019-03-05T19:42:28.526Z,69.00
2019-03-05T19:45:05.915Z,66.50
2019-03-05T19:47:50.603Z,69.30
2019-03-05T19:50:36.087Z,68.50
2019-03-05T19:53:12.542Z,68.30
2019-03-05T19:55:50.656Z,69.20
2019-03-05T19:58:26.581Z,67.70
2019-03-05T20:01:28.361Z,66.60
2019-03-05T20:04:11.929Z,66.80
2019-03-05T20:06:58.907Z,67.60
2019-03-05T20:09:44.431Z,66.20
2019-03-05T20:12:20.500Z,67.00
2019-03-05T20:14:55.554Z,67.90
2019-03-05T20:17:38.564Z,67.70
2019-03-05T20:20:19.761Z,66.20
2019-03-05T20:22:56.254Z,65.40
2019-03-05T20:25:31.779Z,65.70
2019-03-05T20:28:10.849Z,66.60
2019-03-05T20:30:49.872Z,68.00
2019-03-05T20:33:42.169Z,64.50
2019-03-05T20:36:18.678Z,63.10
2019-03-05T20:38:54.657Z,63.50
2019-03-05T20:41:33.176Z,63.90
2019-03-05T20:44:10.163Z,63.00
2019-03-05T20:46:48.954Z,64.00
2019-03-05T20:49:35.728Z,64.80
2019-03-05T20:52:14.481Z,64.20
2019-03-05T20:54:56.336Z,63.20
2019-03-05T20:57:36.290Z,62.90
2019-03-05T21:00:35.928Z,64.40
2019-03-05T21:03:11.999Z,65.20
2019-03-05T21:05:49.361Z,64.70
2019-03-05T21:08:26.227Z,62.40
2019-03-05T21:11:03.893Z,61.50
2019-03-05T21:13:50.368Z,61.40
2019-03-05T21:16:27.664Z,62.90
2019-03-05T21:19:09.221Z,61.70
2019-03-05T21:21:46.173Z,62.00
2019-03-05T21:24:39.096Z,59.40
2019-03-05T21:27:15.907Z,58.60
2019-03-05T21:30:04.092Z,59.30
2019-03-05T21:32:41.570Z,60.80
2019-03-05T21:35:35.388Z,61.40
2019-03-05T21:38:27.406Z,62.90
2019-03-05T21:41:12.065Z,62.40
2019-03-05T21:44:08.164Z,60.90
2019-03-05T21:47:06.727Z,60.80
2019-03-05T21:49:42.511Z,62.40
2019-03-05T21:52:19.984Z,63.40
2019-03-05T21:54:56.831Z,61.90
2019-03-05T21:57:40.875Z,61.40
2019-03-05T22:00:18.524Z,61.30
2019-03-05T22:03:01.118Z,63.10
2019-03-05T22:05:37.078Z,64.70
2019-03-05T22:08:13.314Z,66.10
2019-03-05T22:10:51.360Z,62.00
2019-03-05T22:13:28.494Z,61.20
2019-03-05T22:16:03.637Z,59.70
2019-03-05T22:18:50.819Z,59.40
2019-03-05T22:21:36.408Z,60.20
2019-03-05T22:24:25.230Z,60.10
2019-03-05T22:27:00.656Z,60.30
2019-03-05T22:29:39.272Z,60.80
2019-03-05T22:38:58.051Z,60.00
2019-03-05T22:41:38.264Z,59.00
2019-03-05T22:44:12.375Z,60.00
2019-03-05T22:47:00.656Z,59.40
2019-03-05T22:49:50.696Z,61.00
2019-03-05T22:52:30.212Z,59.30
2019-03-05T22:55:18.580Z,59.90
2019-03-05T22:57:54.310Z,60.10
2019-03-05T23:01:04.478Z,60.20
2019-03-05T23:03:50.129Z,58.70
2019-03-05T23:06:35.505Z,60.10
2019-03-05T23:09:34.362Z,58.60
2019-03-05T23:12:16.607Z,59.70
2019-03-05T23:14:52.480Z,57.80
2019-03-05T23:20:33.989Z,59.60
2019-03-05T23:23:12.586Z,58.60
2019-03-05T23:25:48.120Z,60.00
2019-03-05T23:28:27.988Z,61.50
2019-03-05T23:31:03.538Z,59.10
2019-03-05T23:33:58.092Z,59.30
2019-03-05T23:36:33.676Z,59.20
2019-03-05T23:39:28.472Z,58.60
2019-03-05T23:42:16.352Z,58.90
2019-03-05T23:44:56.715Z,58.90
2019-03-05T23:48:15.238Z,59.50
2019-03-05T23:51:14.039Z,60.80
2019-03-05T23:54:23.215Z,60.20
2019-03-05T23:57:13.244Z,59.70
